Smyrna, NY

11:24 PM EST on March 06, 2015 (GMT -0500)
Chenango County Bureau of Fire | Change Station
CLOSE
Current Station
Personal Weather Station
Location: Smyrna, NY
Elevation: 1131 ft
Nearby Weather Stations

Elev 1131 ft 42.65 °N, 75.55 °W | Updated 40 seconds ago

Partly Cloudy
Partly Cloudy
14.7 °F
Feels Like 7 °F
N
5.0
Wind Variable Wind from SSE
Gusts 6.9 mph

Today
High -- | Low -- °F
--% Chance of Precip.
Yesterday
High -- | Low -- °F
Precip. -- in
6:30 AM 5:57 PM
Full, 98% visible
Pressure 30.21 in
Visibility 10.0 miles
Clouds Scattered Clouds 12000 ft
Windchill 7 °F
Dew Point 2 °F
Humidity 55%
Rainfall in
Snow Depth Not available.
UV 0.0 out of 12
Pollen .40 out of 12
Air Quality Not available.
Flu Activity Not available.
METAR KN03 070415Z AUTO 21004KT 10SM SCT120 M07/M16 A3021 RMK AO2

More Conditions Fewer Conditions

Pressure 30.21 in
Visibility 10.0 miles
Clouds Scattered Clouds 12000 ft
Windchill 7 °F
Dew Point 2 °F
Humidity 55%
Rainfall in
Snow Depth Not available.
UV 0.0 out of 12
Pollen .40 out of 12
Air Quality Not available.
Flu Activity Not available.
METAR KN03 070415Z AUTO 21004KT 10SM SCT120 M07/M16 A3021 RMK AO2

More Conditions Fewer Conditions

10-Day Weather Forecast

Almanac

Astronomy

Mar. 06, 2015 Rise Set
Actual Time
Civil Twilight
Nautical Twilight
Astronomical Twilight
Moon
Length of Visible Light
Length of Day
Tomorrow will be .
, % of the Moon is Illuminated

Today's Extremes

State Highs State Lows

Community

WunderPhotos

Upload Photos

1,803,537 photos uploaded!

WunderBlogs® & News

Nearby

Air Quality

  Air Quality AQ Index Pollutant
Not available.

Snow Depth

Station Depth Elevation

Earthquake Activity

City Distance Mag. Time & Date
Minimum magnitude displayed is 2.5.

Coastal Water Temperatures

Place Temperature

Nearby Weather Stations